aviador You're here:

LFOC Decoded Metar

CHATEAUDUN in FRANCE
Report Time2017-12-11 22:30:00
UTC Time2017-12-11 22:59:13
Flight Rules vfr VFR
Wind290° at 10 kt
W.Decomp.*RWY 28: 9.8 kt HW 1.9 kt RCW
W.Rank290° ranks 17
Current wind is above 290° avg. (7.5)
Visibility9999 m
Phenomena:N/A
Clouds:Few 025 Hf
Overcast 170 Hf
Expected CloudBase > 1,200 ft AGL from Temp-Dew spread
Ceiling17,000 ft
Temp04°C (ISA -10)
Dew Point01°C (81% RH)
AAT-1.4°C
QNH0998 hPa
Density Alt-210 ft
Elevation417 ft
Report Wrong Elevation
Raw Report
METAR LFOC 112230Z AUTO 29010KT 9999 FEW025 OVC170 04/01 Q0998=

Extra information for LFOC:More info

Metar Taf Metar & Taf Last 4 Metars F.Rules Stats Wind Profile Meteogram Temp Stats Airport Information Weather charts Add Link Nearby VenuesMetar ALERT Operation Metar Decoded Social comments